createdAt,value
2022-10-19T00:00:28.062Z,99.90
2022-10-19T00:02:57.464Z,99.90
2022-10-19T00:05:25.458Z,99.90
2022-10-19T00:07:54.491Z,99.90
2022-10-19T00:10:22.632Z,99.90
2022-10-19T00:12:51.176Z,99.90
2022-10-19T00:15:19.471Z,99.90
2022-10-19T00:17:47.438Z,99.90
2022-10-19T00:20:17.030Z,99.90
2022-10-19T00:22:45.148Z,99.90
2022-10-19T00:25:13.267Z,99.90
2022-10-19T00:27:41.223Z,99.90
2022-10-19T00:30:10.120Z,99.90
2022-10-19T00:32:38.127Z,99.90
2022-10-19T00:35:07.022Z,99.90
2022-10-19T00:37:36.309Z,99.90
2022-10-19T00:40:05.090Z,99.90
2022-10-19T00:42:33.277Z,99.90
2022-10-19T00:45:06.838Z,99.90
2022-10-19T00:47:35.346Z,99.90
2022-10-19T00:50:05.551Z,99.90
2022-10-19T00:52:33.880Z,99.90
2022-10-19T00:55:04.163Z,99.90
2022-10-19T00:57:33.614Z,99.90
2022-10-19T01:00:05.283Z,99.90
2022-10-19T01:02:33.529Z,99.90
2022-10-19T01:05:02.916Z,99.90
2022-10-19T01:07:31.111Z,99.90
2022-10-19T01:09:59.799Z,99.90
2022-10-19T01:12:51.457Z,99.90
2022-10-19T01:15:31.069Z,99.90
2022-10-19T01:18:06.984Z,99.90
2022-10-19T01:21:03.782Z,99.90
2022-10-19T01:24:16.278Z,99.90
2022-10-19T01:27:15.464Z,99.90
2022-10-19T01:30:07.593Z,99.90
2022-10-19T01:32:46.394Z,99.90
2022-10-19T01:35:26.010Z,99.90
2022-10-19T01:38:04.944Z,99.90
2022-10-19T01:40:40.007Z,99.90
2022-10-19T01:43:14.458Z,99.90
2022-10-19T01:45:48.530Z,99.90
2022-10-19T01:48:20.234Z,99.90
2022-10-19T01:50:53.393Z,99.90
2022-10-19T01:53:22.789Z,99.90
2022-10-19T01:55:53.634Z,99.90
2022-10-19T01:58:27.592Z,99.90
2022-10-19T02:01:00.469Z,99.90
2022-10-19T02:03:29.595Z,99.90
2022-10-19T02:05:58.779Z,99.90
2022-10-19T02:08:31.203Z,99.90
2022-10-19T02:11:00.918Z,99.90
2022-10-19T02:13:30.376Z,99.90
2022-10-19T02:16:02.470Z,99.90
2022-10-19T02:18:34.465Z,99.90
2022-10-19T02:21:03.162Z,99.90
2022-10-19T02:23:31.292Z,99.90
2022-10-19T02:26:00.180Z,99.90
2022-10-19T02:28:29.263Z,99.90
2022-10-19T02:30:59.655Z,99.90
2022-10-19T02:33:29.848Z,99.90
2022-10-19T02:35:59.009Z,99.90
2022-10-19T02:38:27.270Z,99.90
2022-10-19T02:41:03.753Z,99.90
2022-10-19T02:43:35.793Z,99.90
2022-10-19T02:46:11.771Z,99.90
2022-10-19T02:48:41.504Z,99.90
2022-10-19T02:51:28.251Z,99.90
2022-10-19T02:53:57.376Z,99.90
2022-10-19T02:56:27.258Z,99.90
2022-10-19T02:58:55.792Z,99.90
2022-10-19T03:01:25.462Z,99.90
2022-10-19T03:03:53.563Z,99.90
2022-10-19T03:06:21.558Z,99.90
2022-10-19T03:08:49.588Z,99.90
2022-10-19T03:11:17.597Z,99.90
2022-10-19T03:13:45.666Z,99.90
2022-10-19T03:16:14.315Z,99.90
2022-10-19T03:18:43.798Z,99.90
2022-10-19T03:21:14.252Z,99.90
2022-10-19T03:23:42.767Z,99.90
2022-10-19T03:26:14.943Z,99.90
2022-10-19T03:28:43.419Z,99.90
2022-10-19T03:31:11.536Z,99.90
2022-10-19T03:33:39.596Z,99.90
2022-10-19T03:36:20.915Z,99.90
2022-10-19T03:38:50.517Z,99.90
2022-10-19T03:41:18.739Z,99.90
2022-10-19T03:43:46.927Z,99.90
2022-10-19T03:46:15.603Z,99.90
2022-10-19T03:48:43.790Z,99.90
2022-10-19T03:51:16.301Z,99.90
2022-10-19T03:53:44.721Z,99.90
2022-10-19T03:56:14.847Z,99.90
2022-10-19T03:58:44.376Z,99.90
2022-10-19T04:01:14.801Z,99.90
2022-10-19T04:03:42.921Z,99.90
2022-10-19T04:06:15.847Z,99.90
2022-10-19T04:08:50.260Z,99.90
2022-10-19T04:11:20.332Z,99.90
2022-10-19T04:13:49.384Z,99.90
2022-10-19T04:16:17.734Z,99.90
2022-10-19T04:18:45.936Z,99.90
2022-10-19T04:21:22.818Z,99.90
2022-10-19T04:23:53.040Z,99.90
2022-10-19T04:26:21.838Z,99.90
2022-10-19T04:28:49.980Z,99.90
2022-10-19T04:31:18.109Z,99.90
2022-10-19T04:36:19.284Z,99.90
2022-10-19T04:38:47.517Z,99.90
2022-10-19T04:41:18.825Z,99.90
2022-10-19T04:43:47.275Z,99.90
2022-10-19T04:46:17.514Z,99.90
2022-10-19T04:48:47.103Z,99.90
2022-10-19T04:51:16.391Z,99.90
2022-10-19T04:53:45.227Z,99.90
2022-10-19T04:56:15.171Z,99.90
2022-10-19T04:58:45.021Z,99.90
2022-10-19T05:01:14.590Z,99.90
2022-10-19T05:03:42.926Z,99.90
2022-10-19T05:06:11.444Z,99.90
2022-10-19T05:08:40.272Z,99.90
2022-10-19T05:11:10.442Z,99.90
2022-10-19T05:13:38.730Z,99.90
2022-10-19T05:16:11.871Z,99.90
2022-10-19T05:18:40.687Z,99.90
2022-10-19T05:21:10.484Z,99.90
2022-10-19T05:23:39.366Z,99.90
2022-10-19T05:26:09.007Z,99.90
2022-10-19T05:28:37.830Z,99.90
2022-10-19T05:31:12.228Z,99.90
2022-10-19T05:33:40.577Z,99.90
2022-10-19T05:36:16.448Z,99.90
2022-10-19T05:38:44.923Z,99.90
2022-10-19T05:41:13.516Z,99.90
2022-10-19T05:43:42.722Z,99.90
2022-10-19T05:46:13.939Z,99.90
2022-10-19T05:48:42.545Z,99.90
2022-10-19T05:51:13.125Z,99.90
2022-10-19T05:53:41.734Z,99.90
2022-10-19T05:56:14.875Z,99.90
2022-10-19T05:58:42.901Z,99.90
2022-10-19T06:01:12.539Z,99.90
2022-10-19T06:03:40.617Z,99.90
2022-10-19T06:06:10.124Z,99.90
2022-10-19T06:08:39.189Z,99.90
2022-10-19T06:11:07.984Z,99.90
2022-10-19T06:13:36.512Z,99.90
2022-10-19T06:16:04.853Z,99.90
2022-10-19T06:18:34.984Z,99.90
2022-10-19T06:21:04.477Z,99.90
2022-10-19T06:23:32.730Z,99.90
2022-10-19T06:26:02.901Z,99.90
2022-10-19T06:28:31.197Z,99.90
2022-10-19T06:30:59.667Z,99.90
2022-10-19T06:33:28.187Z,99.90
2022-10-19T06:35:57.521Z,99.90
2022-10-19T06:38:25.620Z,99.90
2022-10-19T06:40:53.630Z,99.90
2022-10-19T06:43:21.622Z,99.90
2022-10-19T06:45:49.580Z,99.90
2022-10-19T06:48:17.669Z,99.90
2022-10-19T06:50:45.675Z,99.90
2022-10-19T06:53:15.059Z,99.90
2022-10-19T06:55:43.028Z,99.90
2022-10-19T06:58:11.034Z,99.90
2022-10-19T07:00:39.115Z,99.90
2022-10-19T07:03:07.188Z,99.90
2022-10-19T07:05:35.164Z,99.90
2022-10-19T07:08:03.292Z,99.90
2022-10-19T07:10:32.649Z,99.90
2022-10-19T07:13:00.757Z,99.90
2022-10-19T07:15:28.723Z,99.90
2022-10-19T07:17:56.764Z,99.90
2022-10-19T07:20:24.798Z,99.90
2022-10-19T07:22:52.826Z,99.90
2022-10-19T07:25:20.817Z,99.90
2022-10-19T07:27:50.274Z,99.90
2022-10-19T07:30:18.352Z,99.90
2022-10-19T07:32:47.194Z,99.90
2022-10-19T07:35:15.622Z,99.90
2022-10-19T07:37:43.839Z,99.90
2022-10-19T07:40:13.380Z,99.90
2022-10-19T07:42:41.608Z,99.90
2022-10-19T07:45:11.730Z,99.90
2022-10-19T07:47:39.751Z,99.90
2022-10-19T07:50:08.052Z,99.90
2022-10-19T07:52:37.051Z,99.90
2022-10-19T07:55:06.040Z,99.90
2022-10-19T07:57:34.060Z,99.90
2022-10-19T08:00:02.431Z,99.90
2022-10-19T08:02:39.652Z,99.90
2022-10-19T08:05:19.852Z,99.90
2022-10-19T08:07:47.943Z,99.90
2022-10-19T08:10:16.145Z,99.90
2022-10-19T08:12:44.213Z,99.90
2022-10-19T08:15:12.209Z,99.90
2022-10-19T08:17:41.601Z,99.90
2022-10-19T08:20:10.262Z,99.90
2022-10-19T08:22:38.315Z,99.90
2022-10-19T08:25:07.134Z,99.90
2022-10-19T08:30:04.425Z,99.90
2022-10-19T08:32:32.991Z,99.90
2022-10-19T08:35:05.041Z,99.90
2022-10-19T08:37:46.245Z,99.90
2022-10-19T08:40:20.327Z,99.90
2022-10-19T08:42:54.871Z,99.90
2022-10-19T08:48:25.747Z,99.90
2022-10-19T08:50:56.948Z,99.90
2022-10-19T08:53:33.520Z,99.90
2022-10-19T08:56:27.004Z,99.90
2022-10-19T08:59:13.909Z,99.90
2022-10-19T09:01:46.875Z,99.90
2022-10-19T09:04:22.633Z,99.90
2022-10-19T09:07:22.605Z,99.90
2022-10-19T09:09:55.778Z,99.90
2022-10-19T09:12:34.452Z,99.90
2022-10-19T09:15:06.152Z,99.90
2022-10-19T09:17:34.777Z,99.90
2022-10-19T09:20:16.448Z,99.90
2022-10-19T09:22:47.150Z,99.90
2022-10-19T09:25:19.782Z,99.90
2022-10-19T09:30:38.780Z,99.90
2022-10-19T09:33:15.397Z,99.90
2022-10-19T09:35:46.631Z,99.90
2022-10-19T09:38:17.791Z,99.90
2022-10-19T09:40:45.892Z,99.90
2022-10-19T09:43:22.835Z,99.90
2022-10-19T09:45:54.823Z,99.90
2022-10-19T09:48:30.286Z,99.90
2022-10-19T09:51:00.523Z,99.90
2022-10-19T09:53:31.098Z,99.90
2022-10-19T09:56:01.615Z,99.90
2022-10-19T09:58:33.118Z,99.90
2022-10-19T10:01:02.937Z,99.40
2022-10-19T10:03:32.906Z,99.90
2022-10-19T10:06:05.058Z,99.90
2022-10-19T10:08:37.664Z,99.90
2022-10-19T10:11:09.652Z,99.90
2022-10-19T10:13:40.444Z,99.90
2022-10-19T10:16:10.480Z,99.90
2022-10-19T10:18:46.472Z,99.90
2022-10-19T10:21:25.366Z,99.90
2022-10-19T10:24:05.601Z,99.90
2022-10-19T10:26:38.668Z,99.90
2022-10-19T10:29:18.265Z,99.90
2022-10-19T10:31:48.417Z,99.90
2022-10-19T10:34:37.683Z,99.90
2022-10-19T10:37:09.179Z,99.90
2022-10-19T10:39:43.676Z,99.90
2022-10-19T10:42:18.310Z,99.90
2022-10-19T10:44:49.539Z,99.80
2022-10-19T10:47:20.494Z,99.90
2022-10-19T10:49:55.633Z,99.90
2022-10-19T10:52:24.503Z,99.90
2022-10-19T10:55:02.420Z,99.90
2022-10-19T10:57:34.358Z,99.90
2022-10-19T11:00:11.164Z,99.90
2022-10-19T11:02:47.329Z,99.90
2022-10-19T11:05:20.587Z,98.80
2022-10-19T11:07:52.970Z,98.90
2022-10-19T11:10:27.751Z,98.90
2022-10-19T11:13:04.398Z,98.60
2022-10-19T11:15:38.001Z,99.90
2022-10-19T11:18:17.795Z,99.90
2022-10-19T11:20:56.462Z,99.90
2022-10-19T11:23:44.989Z,99.60
2022-10-19T11:26:30.488Z,99.90
2022-10-19T11:29:11.015Z,99.90
2022-10-19T11:31:45.877Z,99.90
2022-10-19T11:34:28.662Z,99.90
2022-10-19T11:37:03.239Z,99.90
2022-10-19T11:39:49.903Z,99.90
2022-10-19T11:42:25.046Z,99.90
2022-10-19T11:45:04.332Z,99.90
2022-10-19T11:47:52.109Z,99.90
2022-10-19T11:50:34.449Z,99.90
2022-10-19T11:53:10.516Z,99.90
2022-10-19T11:55:44.001Z,99.90
2022-10-19T11:58:40.406Z,99.90
2022-10-19T12:01:17.191Z,99.00
2022-10-19T12:04:12.656Z,99.90
2022-10-19T12:06:48.573Z,99.90
2022-10-19T12:09:29.628Z,99.90
2022-10-19T12:12:11.041Z,99.60
2022-10-19T12:14:44.356Z,99.90
2022-10-19T12:17:18.050Z,98.80
2022-10-19T12:19:50.197Z,99.30
2022-10-19T12:22:22.107Z,99.80
2022-10-19T12:24:51.269Z,98.80
2022-10-19T12:27:25.703Z,99.00
2022-10-19T12:29:56.173Z,99.00
2022-10-19T12:32:26.040Z,99.30
2022-10-19T12:34:59.181Z,98.20
2022-10-19T12:37:36.025Z,98.60
2022-10-19T12:40:09.551Z,97.90
2022-10-19T12:42:51.438Z,97.60
2022-10-19T12:45:30.313Z,98.70
2022-10-19T12:48:25.594Z,98.50
2022-10-19T12:51:11.942Z,98.10
2022-10-19T12:53:42.004Z,98.30
2022-10-19T12:56:14.394Z,97.60
2022-10-19T12:58:50.061Z,98.10
2022-10-19T13:01:23.587Z,98.40
2022-10-19T13:04:06.566Z,98.10
2022-10-19T13:06:36.849Z,98.00
2022-10-19T13:09:07.998Z,98.10
2022-10-19T13:11:38.218Z,98.00
2022-10-19T13:14:27.816Z,97.50
2022-10-19T13:17:01.320Z,97.80
2022-10-19T13:19:29.686Z,98.30
2022-10-19T13:22:27.633Z,98.20
2022-10-19T13:25:23.631Z,98.30
2022-10-19T13:27:52.807Z,98.10
2022-10-19T13:31:06.285Z,98.20
2022-10-19T13:33:49.900Z,97.60
2022-10-19T13:36:19.176Z,97.80
2022-10-19T13:38:49.368Z,98.20
2022-10-19T13:41:21.467Z,98.10
2022-10-19T13:44:18.360Z,98.50
2022-10-19T13:46:56.489Z,98.40
2022-10-19T13:49:44.305Z,98.30
2022-10-19T13:52:44.121Z,97.80
2022-10-19T13:55:34.889Z,97.70
2022-10-19T13:58:21.370Z,97.40
2022-10-19T14:01:07.848Z,97.40
2022-10-19T14:04:02.791Z,97.50
2022-10-19T14:06:37.353Z,98.50
2022-10-19T14:09:47.280Z,98.70
2022-10-19T14:12:22.231Z,98.90
2022-10-19T14:14:51.969Z,98.80
2022-10-19T14:17:21.499Z,99.10
2022-10-19T14:19:52.332Z,99.50
2022-10-19T14:22:29.948Z,99.70
2022-10-19T14:25:07.389Z,99.40
2022-10-19T14:27:36.153Z,99.00
2022-10-19T14:30:05.556Z,99.00
2022-10-19T14:32:35.525Z,98.80
2022-10-19T14:35:06.938Z,99.00
2022-10-19T14:37:37.829Z,99.30
2022-10-19T14:40:09.619Z,99.10
2022-10-19T14:42:43.308Z,99.40
2022-10-19T14:45:14.990Z,99.30
2022-10-19T14:47:57.145Z,99.40
2022-10-19T14:50:39.297Z,99.40
2022-10-19T14:53:28.097Z,99.30
2022-10-19T14:56:03.439Z,99.50
2022-10-19T14:58:41.586Z,99.50
2022-10-19T15:01:11.898Z,99.80
2022-10-19T15:03:43.922Z,99.80
2022-10-19T15:06:19.897Z,99.80
2022-10-19T15:08:55.367Z,99.80
2022-10-19T15:11:27.136Z,99.80
2022-10-19T15:14:02.768Z,99.90
2022-10-19T15:16:42.800Z,99.90
2022-10-19T15:19:19.376Z,99.90
2022-10-19T15:22:06.615Z,99.90
2022-10-19T15:24:37.925Z,99.90
2022-10-19T15:27:19.166Z,99.90
2022-10-19T15:29:56.110Z,99.90
2022-10-19T15:32:26.395Z,99.90
2022-10-19T15:34:54.525Z,99.90
2022-10-19T15:37:24.232Z,99.90
2022-10-19T15:39:53.972Z,99.90
2022-10-19T15:42:37.910Z,99.90
2022-10-19T15:45:27.132Z,99.90
2022-10-19T15:48:24.691Z,99.90
2022-10-19T15:50:55.061Z,99.90
2022-10-19T15:53:23.702Z,99.90
2022-10-19T15:55:53.109Z,99.90
2022-10-19T15:58:21.565Z,99.90
2022-10-19T16:00:49.581Z,99.90
2022-10-19T16:03:17.615Z,99.90
2022-10-19T16:05:45.731Z,99.90
2022-10-19T16:08:13.771Z,99.90
2022-10-19T16:10:41.762Z,99.90
2022-10-19T16:13:11.083Z,99.90
2022-10-19T16:15:39.076Z,99.90
2022-10-19T16:18:07.103Z,99.90
2022-10-19T16:20:35.127Z,99.90
2022-10-19T16:23:03.154Z,99.90
2022-10-19T16:25:31.212Z,99.90
2022-10-19T16:27:59.194Z,99.90
2022-10-19T16:30:28.536Z,99.90
2022-10-19T16:32:56.528Z,99.90
2022-10-19T16:35:25.297Z,99.90
2022-10-19T16:37:53.298Z,99.90
2022-10-19T16:40:21.358Z,99.90
2022-10-19T16:42:49.324Z,99.90
2022-10-19T16:45:17.654Z,99.90
2022-10-19T16:47:50.671Z,99.90
2022-10-19T16:50:18.850Z,99.90
2022-10-19T16:52:46.865Z,99.90
2022-10-19T16:55:14.897Z,99.90
2022-10-19T16:57:42.874Z,99.90
2022-10-19T17:00:11.971Z,99.90
2022-10-19T17:02:42.008Z,99.90
2022-10-19T17:05:13.894Z,99.90
2022-10-19T17:07:41.856Z,99.90
2022-10-19T17:10:10.809Z,99.90
2022-10-19T17:12:40.688Z,99.90
2022-10-19T17:15:41.055Z,99.90
2022-10-19T17:17:58.034Z,99.90
2022-10-19T17:20:27.430Z,99.90
2022-10-19T17:22:55.503Z,99.90
2022-10-19T17:25:23.514Z,99.90
2022-10-19T17:27:51.796Z,99.90
2022-10-19T17:30:20.362Z,99.90
2022-10-19T17:32:48.432Z,99.90
2022-10-19T17:35:16.446Z,99.90
2022-10-19T17:37:45.809Z,99.90
2022-10-19T17:40:14.129Z,99.90
2022-10-19T17:42:42.106Z,99.90
2022-10-19T17:45:11.420Z,99.90
2022-10-19T17:47:39.414Z,99.90
2022-10-19T17:50:08.085Z,99.90
2022-10-19T17:52:36.042Z,99.90
2022-10-19T17:55:13.710Z,99.90
2022-10-19T17:57:41.882Z,99.90
2022-10-19T18:00:10.567Z,99.90
2022-10-19T18:02:38.599Z,99.90
2022-10-19T18:05:07.237Z,99.90
2022-10-19T18:07:35.405Z,99.90
2022-10-19T18:10:05.264Z,99.90
2022-10-19T18:12:33.244Z,99.90
2022-10-19T18:15:01.240Z,99.90
2022-10-19T18:17:29.205Z,99.90
2022-10-19T18:19:57.243Z,99.90
2022-10-19T18:22:25.245Z,99.90
2022-10-19T18:24:53.260Z,99.90
2022-10-19T18:27:22.646Z,99.90
2022-10-19T18:29:50.652Z,99.90
2022-10-19T18:32:18.701Z,99.90
2022-10-19T18:34:47.347Z,99.90
2022-10-19T18:37:15.347Z,99.90
2022-10-19T18:39:43.364Z,99.90
2022-10-19T18:42:12.816Z,99.90
2022-10-19T18:44:42.339Z,99.90
2022-10-19T18:47:11.776Z,99.90
2022-10-19T18:49:39.799Z,99.90
2022-10-19T18:52:07.827Z,99.90
2022-10-19T18:54:35.831Z,99.90
2022-10-19T18:57:03.908Z,99.90
2022-10-19T18:59:32.084Z,99.90
2022-10-19T19:02:01.546Z,99.90
2022-10-19T19:04:29.744Z,99.90
2022-10-19T19:06:57.798Z,99.90
2022-10-19T19:09:25.866Z,99.90
2022-10-19T19:11:57.518Z,99.90
2022-10-19T19:14:26.516Z,99.90
2022-10-19T19:16:54.725Z,99.90
2022-10-19T19:19:25.818Z,99.90
2022-10-19T19:21:55.057Z,99.90
2022-10-19T19:24:28.152Z,99.90
2022-10-19T19:26:57.842Z,99.90
2022-10-19T19:29:26.242Z,99.90
2022-10-19T19:31:54.455Z,99.90
2022-10-19T19:34:23.861Z,99.90
2022-10-19T19:36:51.859Z,99.90
2022-10-19T19:39:21.703Z,99.90
2022-10-19T19:41:50.940Z,99.90
2022-10-19T19:44:19.645Z,99.90
2022-10-19T19:46:47.718Z,99.90
2022-10-19T19:49:17.386Z,99.90
2022-10-19T19:51:46.697Z,99.90
2022-10-19T19:54:14.724Z,99.90
2022-10-19T19:56:43.286Z,99.90
2022-10-19T19:59:12.752Z,99.90
2022-10-19T20:01:40.828Z,99.90
2022-10-19T20:04:09.261Z,99.90
2022-10-19T20:06:39.619Z,99.90
2022-10-19T20:09:10.600Z,99.90
2022-10-19T20:11:42.352Z,99.90
2022-10-19T20:14:11.554Z,99.90
2022-10-19T20:16:39.695Z,99.90
2022-10-19T20:19:09.971Z,99.90
2022-10-19T20:21:38.536Z,99.90
2022-10-19T20:24:08.742Z,99.90
2022-10-19T20:26:36.854Z,99.90
2022-10-19T20:29:05.732Z,99.90
2022-10-19T20:31:39.640Z,99.90
2022-10-19T20:34:09.917Z,99.90
2022-10-19T20:36:38.029Z,99.90
2022-10-19T20:39:06.176Z,99.90
2022-10-19T20:41:35.628Z,99.90
2022-10-19T20:44:03.765Z,99.90
2022-10-19T20:46:32.279Z,99.90
2022-10-19T20:49:02.134Z,99.90
2022-10-19T20:51:32.639Z,99.90
2022-10-19T20:54:02.632Z,99.90
2022-10-19T20:56:32.903Z,99.90
2022-10-19T21:01:39.243Z,99.90
2022-10-19T21:04:09.228Z,99.90
2022-10-19T21:06:40.447Z,99.90
2022-10-19T21:09:09.602Z,99.90
2022-10-19T21:11:39.279Z,99.90
2022-10-19T21:14:12.799Z,99.90
2022-10-19T21:16:41.666Z,99.90
2022-10-19T21:19:13.360Z,99.90
2022-10-19T21:21:43.629Z,99.90
2022-10-19T21:24:13.734Z,99.90
2022-10-19T21:26:42.004Z,99.90
2022-10-19T21:29:12.746Z,99.90
2022-10-19T21:31:44.108Z,99.90
2022-10-19T21:34:17.515Z,99.90
2022-10-19T21:36:45.566Z,99.90
2022-10-19T21:39:13.665Z,99.90
2022-10-19T21:41:41.667Z,99.90
2022-10-19T21:44:11.220Z,99.90
2022-10-19T21:46:39.252Z,99.90
2022-10-19T21:49:07.248Z,99.90
2022-10-19T21:51:38.496Z,99.90
2022-10-19T21:54:08.668Z,99.90
2022-10-19T21:56:37.959Z,99.90
2022-10-19T21:59:06.175Z,99.90
2022-10-19T22:01:38.683Z,99.90
2022-10-19T22:04:12.418Z,99.90
2022-10-19T22:06:41.296Z,99.90
2022-10-19T22:09:11.141Z,99.90
2022-10-19T22:11:39.250Z,99.90
2022-10-19T22:14:07.315Z,99.90
2022-10-19T22:16:37.084Z,99.90
2022-10-19T22:19:06.224Z,99.90
2022-10-19T22:24:06.785Z,99.90
2022-10-19T22:26:36.689Z,99.90
2022-10-19T22:29:05.710Z,99.90
2022-10-19T22:31:34.673Z,99.90
2022-10-19T22:34:09.032Z,99.90
2022-10-19T22:36:37.097Z,99.90
2022-10-19T22:39:05.290Z,99.90
2022-10-19T22:41:33.345Z,99.90
2022-10-19T22:44:01.602Z,99.90
2022-10-19T22:46:29.651Z,99.90
2022-10-19T22:48:57.766Z,99.90
2022-10-19T22:51:27.678Z,99.90
2022-10-19T22:53:55.713Z,99.90
2022-10-19T22:56:23.828Z,99.90
2022-10-19T22:58:51.888Z,99.90
2022-10-19T23:01:20.250Z,99.90
2022-10-19T23:03:48.376Z,99.90
2022-10-19T23:06:17.126Z,99.90
2022-10-19T23:08:47.167Z,99.90
2022-10-19T23:11:15.681Z,99.90
2022-10-19T23:13:44.020Z,99.90
2022-10-19T23:16:12.117Z,99.90
2022-10-19T23:18:41.682Z,99.90
2022-10-19T23:21:13.833Z,99.90
2022-10-19T23:23:42.632Z,99.90
2022-10-19T23:26:13.777Z,99.90
2022-10-19T23:28:44.041Z,99.90
2022-10-19T23:31:14.137Z,99.90
2022-10-19T23:33:42.893Z,99.90
2022-10-19T23:36:14.277Z,99.90
2022-10-19T23:38:42.584Z,99.90
2022-10-19T23:41:12.642Z,99.90
2022-10-19T23:43:40.973Z,99.90
2022-10-19T23:46:09.386Z,99.90
2022-10-19T23:48:37.514Z,99.90
2022-10-19T23:51:07.753Z,99.90
2022-10-19T23:53:40.718Z,99.90
2022-10-19T23:56:13.025Z,99.90
2022-10-19T23:58:41.215Z,99.90
